Time;durP1;ratioP1;P1;durP2;ratioP2;P2;SDS_P1;SDS_P2;PMS_P1;PMS_P2;Temp;Humidity;BMP_temperature;BMP_pressure;BME280_temperature;BME280_humidity;BME280_pressure;Samples;Min_cycle;Max_cycle;Signal;HPM_P1;HPM_P2
2022/12/20 00:02:25;;;;;;;;;;;;;;;;;;4975007;28;20195;-61
2022/12/20 00:04:53;;;;;;;;;;;;;;;;;;4974311;28;19916;-60
2022/12/20 00:07:18;;;;;;;;;;;;;;;;;;4962043;28;19927;-60
2022/12/20 00:09:46;;;;;;;;;;;;;;;;;;5063260;28;19920;-60
2022/12/20 00:12:14;;;;;;;;;;;;;;;;;;4962783;28;20008;-61
2022/12/20 00:14:39;;;;;;;;;;;;;;;;;;5063590;28;19916;-61
2022/12/20 00:17:04;;;;;;;;;;;;;;;;;;4977069;28;19920;-61
2022/12/20 00:19:32;;;;;;;;;;;;;;;;;;5043090;28;20437;-60
2022/12/20 00:21:57;;;;;;;;;;;;;;;;;;4968507;28;19919;-61
2022/12/20 00:24:25;;;;;;;;;;;;;;;;;;4981844;28;20532;-60
2022/12/20 00:26:54;;;;;;;;;;;;;;;;;;4962558;28;20005;-61
2022/12/20 00:32:36;;;;;;;;;;;;;;;;;;4980034;28;20034;-63
2022/12/20 00:35:04;;;;;;;;;;;;;;;;;;4964168;28;20401;-62
2022/12/20 00:37:32;;;;;;;;;;;;;;;;;;5030964;28;21022;-60
2022/12/20 00:40:00;;;;;;;;;;;;;;;;;;4980846;28;20097;-63
2022/12/20 00:42:25;;;;;;;;;;;;;;;;;;4961721;28;20332;-61
2022/12/20 00:47:43;;;;;;;;;;;;;;;;;;4981875;28;19922;-62
2022/12/20 00:50:09;;;;;;;;;;;;;;;;;;4964593;28;19928;-62
2022/12/20 00:52:34;;;;;;;;;;;;;;;;;;4980583;28;19926;-61
2022/12/20 00:55:01;;;;;;;;;;;;;;;;;;4980093;28;19933;-62
2022/12/20 00:57:29;;;;;;;;;;;;;;;;;;4985598;28;20078;-62
2022/12/20 00:59:54;;;;;;;;;;;;;;;;;;4980067;28;20101;-62
2022/12/20 01:02:22;;;;;;;;;;;;;;;;;;4980386;28;20366;-62
2022/12/20 01:04:47;;;;;;;;;;;;;;;;;;4981165;28;19995;-61
2022/12/20 01:07:13;;;;;;;;;;;;;;;;;;4979367;28;20305;-62
2022/12/20 01:09:38;;;;;;;;;;;;;;;;;;4960689;28;19921;-62
2022/12/20 01:12:18;;;;;;;;;;;;;;;;;;4982173;28;19929;-61
2022/12/20 01:14:44;;;;;;;;;;;;;;;;;;4962524;28;19921;-62
2022/12/20 01:20:25;;;;;;;;;;;;;;;;;;4981680;28;20410;-62
2022/12/20 01:22:51;;;;;;;;;;;;;;;;;;4979548;28;20136;-62
2022/12/20 01:25:16;;;;;;;;;;;;;;;;;;4981764;28;20272;-63
2022/12/20 01:27:41;;;;;;;;;;;;;;;;;;4945351;28;20332;-67
2022/12/20 01:30:07;;;;;;;;;;;;;;;;;;4962862;28;19921;-64
2022/12/20 01:32:32;;;;;;;;;;;;;;;;;;5047618;28;19925;-63
2022/12/20 01:34:57;;;;;;;;;;;;;;;;;;4979256;28;20399;-63
2022/12/20 01:37:25;;;;;;;;;;;;;;;;;;4980869;28;19921;-63
2022/12/20 01:39:50;;;;;;;;;;;;;;;;;;4962865;28;19970;-63
2022/12/20 01:42:18;;;;;;;;;;;;;;;;;;4977755;28;19921;-64
2022/12/20 01:44:46;;;;;;;;;;;;;;;;;;4979505;28;20109;-64
2022/12/20 01:47:12;;;;;;;;;;;;;;;;;;4979607;28;19985;-63
2022/12/20 01:49:37;;;;;;;;;;;;;;;;;;4947476;28;20381;-63
2022/12/20 01:52:02;;;;;;;;;;;;;;;;;;5043956;28;20456;-64
2022/12/20 01:54:27;;;;;;;;;;;;;;;;;;4957713;28;19921;-64
2022/12/20 01:56:53;;;;;;;;;;;;;;;;;;4976494;28;20577;-62
2022/12/20 01:59:18;;;;;;;;;;;;;;;;;;5045434;28;19918;-62
2022/12/20 02:01:46;;;;;;;;;;;;;;;;;;4978980;28;19917;-62
2022/12/20 02:04:11;;;;;;;;;;;;;;;;;;4980220;28;20054;-63
2022/12/20 02:06:56;;;;;;;;;;;;;;;;;;4974203;28;20294;-63
2022/12/20 02:09:27;;;;;;;;;;;;;;;;;;4958678;28;19964;-63
2022/12/20 02:11:55;;;;;;;;;;;;;;;;;;4962461;28;19917;-63
2022/12/20 02:14:22;;;;;;;;;;;;;;;;;;4960871;28;19921;-63
2022/12/20 02:16:50;;;;;;;;;;;;;;;;;;4944417;28;20340;-62
2022/12/20 02:19:15;;;;;;;;;;;;;;;;;;4960567;28;19926;-63
2022/12/20 02:21:40;;;;;;;;;;;;;;;;;;4978893;28;19917;-64
2022/12/20 02:24:09;;;;;;;;;;;;;;;;;;4977520;28;20152;-63
2022/12/20 02:26:37;;;;;;;;;;;;;;;;;;4962420;28;20395;-63
2022/12/20 02:29:05;;;;;;;;;;;;;;;;;;5043431;28;19922;-62
2022/12/20 02:31:32;;;;;;;;;;;;;;;;;;5027486;28;20336;-65
2022/12/20 02:33:58;;;;;;;;;;;;;;;;;;5047054;28;19933;-63
2022/12/20 02:36:24;;;;;;;;;;;;;;;;;;4962094;28;20431;-63
2022/12/20 02:38:49;;;;;;;;;;;;;;;;;;5029376;28;19922;-62
2022/12/20 02:41:14;;;;;;;;;;;;;;;;;;4981794;28;19926;-63
2022/12/20 02:46:28;;;;;;;;;;;;;;;;;;4964251;28;20012;-63
2022/12/20 02:48:56;;;;;;;;;;;;;;;;;;5033539;28;19937;-63
2022/12/20 02:51:21;;;;;;;;;;;;;;;;;;4964008;28;19921;-63
2022/12/20 02:53:49;;;;;;;;;;;;;;;;;;4981236;28;20126;-63
2022/12/20 02:56:16;;;;;;;;;;;;;;;;;;4981519;28;19921;-63
2022/12/20 02:58:42;;;;;;;;;;;;;;;;;;4982237;28;19917;-62
2022/12/20 03:01:12;;;;;;;;;;;;;;;;;;5046342;28;19951;-61
2022/12/20 03:03:39;;;;;;;;;;;;;;;;;;4981615;28;19922;-63
2022/12/20 03:06:07;;;;;;;;;;;;;;;;;;4966230;28;19945;-61
2022/12/20 03:08:34;;;;;;;;;;;;;;;;;;4964579;28;19976;-61
2022/12/20 03:11:02;;;;;;;;;;;;;;;;;;4982308;28;20335;-61
2022/12/20 03:13:30;;;;;;;;;;;;;;;;;;4982144;28;19925;-61
2022/12/20 03:15:55;;;;;;;;;;;;;;;;;;4964057;28;19925;-64
2022/12/20 03:18:20;;;;;;;;;;;;;;;;;;4983470;28;19962;-61
2022/12/20 03:20:46;;;;;;;;;;;;;;;;;;4979732;28;19974;-61
2022/12/20 03:23:11;;;;;;;;;;;;;;;;;;4981777;28;19998;-61
2022/12/20 03:25:36;;;;;;;;;;;;;;;;;;4982878;28;19917;-61
2022/12/20 03:28:02;;;;;;;;;;;;;;;;;;4982397;28;20815;-61
2022/12/20 03:30:29;;;;;;;;;;;;;;;;;;4982345;28;19921;-61
2022/12/20 03:32:54;;;;;;;;;;;;;;;;;;5047784;28;19988;-61
2022/12/20 03:35:22;;;;;;;;;;;;;;;;;;4964460;28;19925;-60
2022/12/20 03:37:48;;;;;;;;;;;;;;;;;;4965971;28;19926;-61
2022/12/20 03:40:15;;;;;;;;;;;;;;;;;;4981378;28;19924;-62
2022/12/20 03:42:43;;;;;;;;;;;;;;;;;;4982282;28;19918;-60
2022/12/20 03:45:09;;;;;;;;;;;;;;;;;;4980512;28;19986;-60
2022/12/20 03:47:34;;;;;;;;;;;;;;;;;;4979981;28;19917;-60
2022/12/20 03:50:02;;;;;;;;;;;;;;;;;;4981110;28;19925;-62
2022/12/20 03:52:27;;;;;;;;;;;;;;;;;;4981825;28;19925;-61
2022/12/20 03:54:52;;;;;;;;;;;;;;;;;;5046075;28;20516;-60
2022/12/20 03:57:20;;;;;;;;;;;;;;;;;;4965300;28;19960;-62
2022/12/20 03:59:48;;;;;;;;;;;;;;;;;;4982206;28;20253;-62
2022/12/20 04:02:13;;;;;;;;;;;;;;;;;;4962217;28;19935;-61
2022/12/20 04:04:41;;;;;;;;;;;;;;;;;;4948258;28;19993;-59
2022/12/20 04:07:11;;;;;;;;;;;;;;;;;;4982404;28;19918;-58
2022/12/20 04:09:38;;;;;;;;;;;;;;;;;;5046873;28;19928;-59
2022/12/20 04:12:06;;;;;;;;;;;;;;;;;;4982612;28;20066;-59
2022/12/20 04:14:35;;;;;;;;;;;;;;;;;;4980009;28;20758;-59
2022/12/20 04:17:00;;;;;;;;;;;;;;;;;;4981716;28;20043;-60
2022/12/20 04:19:25;;;;;;;;;;;;;;;;;;4980248;28;20044;-59
2022/12/20 04:21:55;;;;;;;;;;;;;;;;;;4960720;28;19974;-60
2022/12/20 04:24:22;;;;;;;;;;;;;;;;;;4981954;28;19930;-59
2022/12/20 04:26:50;;;;;;;;;;;;;;;;;;4964175;28;20423;-60
2022/12/20 04:29:16;;;;;;;;;;;;;;;;;;4982314;28;19944;-60
2022/12/20 04:31:42;;;;;;;;;;;;;;;;;;4982044;28;19922;-61
2022/12/20 04:34:07;;;;;;;;;;;;;;;;;;5049809;28;19930;-61
2022/12/20 04:36:32;;;;;;;;;;;;;;;;;;4980789;28;20669;-63
2022/12/20 04:39:01;;;;;;;;;;;;;;;;;;4982116;28;20603;-61
2022/12/20 04:41:28;;;;;;;;;;;;;;;;;;4962883;28;19929;-61
2022/12/20 04:47:12;;;;;;;;;;;;;;;;;;4981744;28;19993;-61
2022/12/20 04:49:37;;;;;;;;;;;;;;;;;;4981544;28;19998;-61
2022/12/20 04:54:47;;;;;;;;;;;;;;;;;;4979043;28;20033;-62
2022/12/20 04:57:14;;;;;;;;;;;;;;;;;;4960215;28;20037;-62
2022/12/20 04:59:39;;;;;;;;;;;;;;;;;;4963274;28;20318;-61
2022/12/20 05:02:09;;;;;;;;;;;;;;;;;;4979811;28;19924;-60
2022/12/20 05:04:39;;;;;;;;;;;;;;;;;;4966663;28;19921;-61
2022/12/20 05:07:07;;;;;;;;;;;;;;;;;;4979783;28;19952;-61
2022/12/20 05:12:52;;;;;;;;;;;;;;;;;;4981120;28;20309;-60
2022/12/20 05:15:17;;;;;;;;;;;;;;;;;;4979088;28;19921;-61
2022/12/20 05:26:27;;;;;;;;;;;;;;;;;;4963522;28;19925;-60
2022/12/20 05:28:53;;;;;;;;;;;;;;;;;;4959350;28;20501;-61
2022/12/20 05:31:18;;;;;;;;;;;;;;;;;;4979798;28;19922;-61
2022/12/20 05:33:44;;;;;;;;;;;;;;;;;;4981640;28;19925;-61
2022/12/20 05:36:12;;;;;;;;;;;;;;;;;;4948010;28;20305;-63
2022/12/20 05:41:53;;;;;;;;;;;;;;;;;;4980320;28;19946;-61
2022/12/20 05:44:21;;;;;;;;;;;;;;;;;;4980185;28;20381;-61
2022/12/20 05:46:46;;;;;;;;;;;;;;;;;;4964291;28;19928;-61
2022/12/20 05:49:14;;;;;;;;;;;;;;;;;;4981181;28;19926;-62
2022/12/20 05:51:41;;;;;;;;;;;;;;;;;;5028182;28;19928;-61
2022/12/20 05:54:07;;;;;;;;;;;;;;;;;;4976770;28;19972;-62
2022/12/20 05:56:34;;;;;;;;;;;;;;;;;;4979790;28;19930;-62
2022/12/20 05:59:00;;;;;;;;;;;;;;;;;;4985998;28;19928;-62
2022/12/20 06:01:26;;;;;;;;;;;;;;;;;;4963041;28;19966;-61
2022/12/20 06:03:52;;;;;;;;;;;;;;;;;;4959937;28;19986;-64
2022/12/20 06:06:17;;;;;;;;;;;;;;;;;;5046212;28;19918;-61
2022/12/20 06:08:42;;;;;;;;;;;;;;;;;;4963844;28;20110;-61
2022/12/20 06:11:08;;;;;;;;;;;;;;;;;;4957916;28;19921;-61
2022/12/20 06:13:33;;;;;;;;;;;;;;;;;;4980709;28;20368;-62
2022/12/20 06:15:59;;;;;;;;;;;;;;;;;;4983264;28;19921;-62
2022/12/20 06:18:27;;;;;;;;;;;;;;;;;;4966252;28;20008;-62
2022/12/20 06:20:56;;;;;;;;;;;;;;;;;;4982594;28;19936;-62
2022/12/20 06:23:22;;;;;;;;;;;;;;;;;;4968811;28;19929;-62
2022/12/20 06:25:47;;;;;;;;;;;;;;;;;;4983792;28;19932;-63
2022/12/20 06:28:12;;;;;;;;;;;;;;;;;;4950215;28;19917;-63
2022/12/20 06:30:38;;;;;;;;;;;;;;;;;;4981168;28;20589;-63
2022/12/20 06:33:04;;;;;;;;;;;;;;;;;;4983566;28;19922;-61
2022/12/20 06:35:29;;;;;;;;;;;;;;;;;;5050883;28;19921;-62
2022/12/20 06:37:58;;;;;;;;;;;;;;;;;;4984070;28;19917;-62
2022/12/20 06:40:24;;;;;;;;;;;;;;;;;;4963947;28;20325;-62
2022/12/20 06:42:51;;;;;;;;;;;;;;;;;;5048729;28;19928;-62
2022/12/20 06:45:17;;;;;;;;;;;;;;;;;;4965617;28;20865;-62
2022/12/20 06:51:01;;;;;;;;;;;;;;;;;;4981451;28;19924;-62
2022/12/20 06:53:27;;;;;;;;;;;;;;;;;;4983208;28;19961;-61
2022/12/20 06:55:56;;;;;;;;;;;;;;;;;;4983523;28;20022;-61
2022/12/20 06:58:21;;;;;;;;;;;;;;;;;;4964386;28;19921;-62
2022/12/20 07:00:46;;;;;;;;;;;;;;;;;;4979416;28;21387;-63
2022/12/20 07:03:14;;;;;;;;;;;;;;;;;;4967073;28;19922;-61
2022/12/20 07:05:39;;;;;;;;;;;;;;;;;;4948651;28;20348;-61
2022/12/20 07:08:07;;;;;;;;;;;;;;;;;;4963141;28;20231;-61
2022/12/20 07:10:35;;;;;;;;;;;;;;;;;;4962854;28;19922;-60
2022/12/20 07:13:00;;;;;;;;;;;;;;;;;;4980045;28;20581;-61
2022/12/20 07:18:44;;;;;;;;;;;;;;;;;;4981285;28;20090;-61
2022/12/20 07:24:26;;;;;;;;;;;;;;;;;;5043751;28;20481;-60
2022/12/20 07:26:53;;;;;;;;;;;;;;;;;;5030845;28;19920;-61
2022/12/20 07:29:24;;;;;;;;;;;;;;;;;;5030120;28;19921;-59
2022/12/20 07:31:49;;;;;;;;;;;;;;;;;;5048239;28;19974;-60
2022/12/20 07:34:15;;;;;;;;;;;;;;;;;;5032366;28;19920;-60
2022/12/20 07:36:40;;;;;;;;;;;;;;;;;;5065775;28;20568;-60
2022/12/20 07:39:10;;;;;;;;;;;;;;;;;;5066770;28;19924;-60
2022/12/20 07:41:35;;;;;;;;;;;;;;;;;;5065344;28;20466;-60
2022/12/20 07:44:00;;;;;;;;;;;;;;;;;;5066988;28;19916;-61
2022/12/20 07:46:26;;;;;;;;;;;;;;;;;;5043908;28;20041;-60
2022/12/20 07:48:53;;;;;;;;;;;;;;;;;;5046607;28;19924;-60
2022/12/20 07:51:21;;;;;;;;;;;;;;;;;;5068716;28;19916;-60
2022/12/20 07:53:46;;;;;;;;;;;;;;;;;;5064403;28;20777;-61
2022/12/20 07:56:15;;;;;;;;;;;;;;;;;;5066293;28;19924;-61
2022/12/20 07:58:45;;;;;;;;;;;;;;;;;;5045428;28;19966;-62
2022/12/20 08:01:11;;;;;;;;;;;;;;;;;;5046725;28;19985;-62
2022/12/20 08:03:36;;;;;;;;;;;;;;;;;;5042799;28;20023;-63
2022/12/20 08:06:02;;;;;;;;;;;;;;;;;;5065660;28;20424;-60
2022/12/20 08:08:30;;;;;;;;;;;;;;;;;;5046461;28;19920;-61
2022/12/20 08:10:58;;;;;;;;;;;;;;;;;;5048718;28;20203;-61
2022/12/20 08:13:26;;;;;;;;;;;;;;;;;;5031626;28;19924;-63
2022/12/20 08:15:51;;;;;;;;;;;;;;;;;;5065137;28;19923;-61
2022/12/20 08:18:17;;;;;;;;;;;;;;;;;;5044416;28;19938;-61
2022/12/20 08:20:42;;;;;;;;;;;;;;;;;;5063800;28;20019;-61
2022/12/20 08:23:08;;;;;;;;;;;;;;;;;;5041144;28;19931;-60
2022/12/20 08:25:33;;;;;;;;;;;;;;;;;;4975867;28;19926;-60
2022/12/20 08:28:01;;;;;;;;;;;;;;;;;;5063005;28;21432;-60
2022/12/20 08:30:26;;;;;;;;;;;;;;;;;;5062154;28;19920;-60
2022/12/20 08:32:51;;;;;;;;;;;;;;;;;;5062859;28;19931;-61
2022/12/20 08:35:17;;;;;;;;;;;;;;;;;;5061226;28;19923;-61
2022/12/20 08:37:42;;;;;;;;;;;;;;;;;;4972933;28;19940;-60
2022/12/20 08:43:00;;;;;;;;;;;;;;;;;;4977194;28;19920;-61
2022/12/20 08:45:28;;;;;;;;;;;;;;;;;;4959783;28;19939;-61
2022/12/20 08:47:54;;;;;;;;;;;;;;;;;;5063823;28;19920;-61
2022/12/20 08:50:22;;;;;;;;;;;;;;;;;;5061953;28;21204;-64
2022/12/20 08:52:59;;;;;;;;;;;;;;;;;;4981764;28;19920;-61
2022/12/20 08:55:28;;;;;;;;;;;;;;;;;;4976093;28;19960;-61
2022/12/20 08:57:55;;;;;;;;;;;;;;;;;;4978464;28;19916;-61
2022/12/20 09:00:20;;;;;;;;;;;;;;;;;;4958142;28;19916;-61
2022/12/20 09:02:47;;;;;;;;;;;;;;;;;;4974432;28;20426;-62
2022/12/20 09:05:15;;;;;;;;;;;;;;;;;;4977644;28;20567;-62
2022/12/20 09:07:40;;;;;;;;;;;;;;;;;;5043465;28;19951;-61
2022/12/20 09:10:08;;;;;;;;;;;;;;;;;;5064830;28;19966;-62
2022/12/20 09:12:33;;;;;;;;;;;;;;;;;;5041522;28;19928;-60
2022/12/20 09:14:59;;;;;;;;;;;;;;;;;;5062782;28;19931;-61
2022/12/20 09:17:24;;;;;;;;;;;;;;;;;;5061468;28;21394;-61
2022/12/20 09:19:50;;;;;;;;;;;;;;;;;;5061596;28;19931;-61
2022/12/20 09:22:16;;;;;;;;;;;;;;;;;;5062011;28;20688;-63
2022/12/20 09:24:41;;;;;;;;;;;;;;;;;;5060678;28;20335;-62
2022/12/20 09:27:06;;;;;;;;;;;;;;;;;;5048300;28;20476;-62
2022/12/20 09:29:36;;;;;;;;;;;;;;;;;;5060019;28;20337;-61
2022/12/20 09:32:01;;;;;;;;;;;;;;;;;;5050011;28;20359;-60
2022/12/20 09:34:27;;;;;;;;;;;;;;;;;;5044967;28;19943;-61
2022/12/20 09:36:52;;;;;;;;;;;;;;;;;;5026681;28;19928;-61
2022/12/20 09:39:20;;;;;;;;;;;;;;;;;;5064083;28;19920;-61
2022/12/20 09:42:04;;;;;;;;;;;;;;;;;;5040264;28;19924;-60
2022/12/20 09:44:31;;;;;;;;;;;;;;;;;;5062027;28;19920;-60
2022/12/20 09:46:57;;;;;;;;;;;;;;;;;;5062972;28;20038;-61
2022/12/20 09:49:22;;;;;;;;;;;;;;;;;;5044998;28;19946;-61
2022/12/20 09:51:50;;;;;;;;;;;;;;;;;;5046287;28;20007;-62
2022/12/20 09:54:17;;;;;;;;;;;;;;;;;;5061632;28;20009;-61
2022/12/20 09:56:45;;;;;;;;;;;;;;;;;;5042776;28;20010;-61
2022/12/20 09:59:10;;;;;;;;;;;;;;;;;;5042475;28;20332;-61
2022/12/20 10:01:36;;;;;;;;;;;;;;;;;;5060203;28;19924;-61
2022/12/20 10:04:04;;;;;;;;;;;;;;;;;;5039443;28;19929;-61
2022/12/20 10:06:29;;;;;;;;;;;;;;;;;;5045021;28;19955;-62
2022/12/20 10:08:55;;;;;;;;;;;;;;;;;;5042028;28;20947;-61
2022/12/20 10:11:20;;;;;;;;;;;;;;;;;;5063452;28;20647;-64
2022/12/20 10:13:48;;;;;;;;;;;;;;;;;;5059527;28;20280;-62
2022/12/20 10:16:14;;;;;;;;;;;;;;;;;;5042446;28;20031;-62
2022/12/20 10:18:42;;;;;;;;;;;;;;;;;;5039567;28;20659;-61
2022/12/20 10:21:07;;;;;;;;;;;;;;;;;;5042511;28;19924;-64
2022/12/20 10:23:35;;;;;;;;;;;;;;;;;;5031372;28;19921;-67
2022/12/20 10:26:03;;;;;;;;;;;;;;;;;;4965837;28;19917;-63
2022/12/20 10:28:28;;;;;;;;;;;;;;;;;;4967851;28;20411;-63
2022/12/20 10:30:54;;;;;;;;;;;;;;;;;;4972974;28;20188;-62
2022/12/20 10:33:19;;;;;;;;;;;;;;;;;;4971048;28;19991;-62
2022/12/20 10:35:46;;;;;;;;;;;;;;;;;;4979978;28;20641;-63
2022/12/20 10:38:11;;;;;;;;;;;;;;;;;;4970428;28;20840;-64
2022/12/20 10:40:36;;;;;;;;;;;;;;;;;;4955458;28;19926;-64
2022/12/20 10:43:02;;;;;;;;;;;;;;;;;;4969045;28;19922;-63
2022/12/20 10:45:30;;;;;;;;;;;;;;;;;;4968109;28;19929;-64
2022/12/20 10:47:58;;;;;;;;;;;;;;;;;;4953840;28;19925;-63
2022/12/20 10:50:26;;;;;;;;;;;;;;;;;;4979645;28;19921;-64
2022/12/20 10:52:51;;;;;;;;;;;;;;;;;;4979606;28;20392;-63
2022/12/20 10:55:22;;;;;;;;;;;;;;;;;;4977130;28;21818;-63
2022/12/20 10:57:47;;;;;;;;;;;;;;;;;;4955521;28;20020;-65
2022/12/20 11:00:17;;;;;;;;;;;;;;;;;;4979696;28;20372;-64
2022/12/20 11:02:42;;;;;;;;;;;;;;;;;;4981691;28;20349;-64
2022/12/20 11:05:10;;;;;;;;;;;;;;;;;;4982929;28;19921;-63
2022/12/20 11:07:38;;;;;;;;;;;;;;;;;;4982503;28;19925;-67
2022/12/20 11:10:06;;;;;;;;;;;;;;;;;;4971938;28;20264;-64
2022/12/20 11:12:31;;;;;;;;;;;;;;;;;;4982764;28;22033;-62
2022/12/20 11:14:59;;;;;;;;;;;;;;;;;;4981789;28;19922;-62
2022/12/20 11:17:25;;;;;;;;;;;;;;;;;;4973246;28;20296;-62
2022/12/20 11:19:50;;;;;;;;;;;;;;;;;;4981758;28;20689;-63
2022/12/20 11:22:31;;;;;;;;;;;;;;;;;;4971207;28;20626;-65
2022/12/20 11:24:56;;;;;;;;;;;;;;;;;;4973419;28;20170;-63
2022/12/20 11:27:22;;;;;;;;;;;;;;;;;;4973702;28;20315;-62
2022/12/20 11:29:48;;;;;;;;;;;;;;;;;;4981203;28;19999;-63
2022/12/20 11:32:13;;;;;;;;;;;;;;;;;;4956977;28;19921;-63
2022/12/20 11:34:38;;;;;;;;;;;;;;;;;;4975959;28;20744;-64
2022/12/20 11:37:06;;;;;;;;;;;;;;;;;;4954422;28;20566;-63
2022/12/20 11:39:31;;;;;;;;;;;;;;;;;;4980852;28;19923;-63
2022/12/20 11:41:57;;;;;;;;;;;;;;;;;;4980916;28;19947;-63
2022/12/20 11:44:24;;;;;;;;;;;;;;;;;;4960743;28;19918;-63
2022/12/20 11:46:50;;;;;;;;;;;;;;;;;;4975888;28;20778;-63
2022/12/20 11:49:15;;;;;;;;;;;;;;;;;;4961765;28;19933;-62
2022/12/20 11:51:40;;;;;;;;;;;;;;;;;;4961616;28;19918;-63
2022/12/20 11:54:11;;;;;;;;;;;;;;;;;;4975056;28;19953;-63
2022/12/20 11:56:36;;;;;;;;;;;;;;;;;;4981352;28;20034;-68
2022/12/20 11:59:02;;;;;;;;;;;;;;;;;;4974325;28;19918;-64
2022/12/20 12:01:29;;;;;;;;;;;;;;;;;;4972103;28;19983;-64
2022/12/20 12:03:57;;;;;;;;;;;;;;;;;;4981197;28;19921;-64
2022/12/20 12:06:23;;;;;;;;;;;;;;;;;;4982165;28;20036;-64
2022/12/20 12:08:48;;;;;;;;;;;;;;;;;;4974029;28;19921;-65
2022/12/20 12:14:13;;;;;;;;;;;;;;;;;;4979182;28;20890;-66
2022/12/20 12:16:39;;;;;;;;;;;;;;;;;;4971445;28;20110;-67
2022/12/20 12:19:04;;;;;;;;;;;;;;;;;;4970375;28;19973;-66
2022/12/20 12:21:32;;;;;;;;;;;;;;;;;;4969981;28;20580;-67
2022/12/20 12:23:57;;;;;;;;;;;;;;;;;;4981658;28;19931;-67
2022/12/20 12:26:23;;;;;;;;;;;;;;;;;;4981077;28;19926;-66
2022/12/20 12:28:51;;;;;;;;;;;;;;;;;;4981765;28;20420;-66
2022/12/20 12:31:17;;;;;;;;;;;;;;;;;;4979463;28;19932;-66
2022/12/20 12:33:43;;;;;;;;;;;;;;;;;;4981477;28;20441;-65
2022/12/20 12:36:08;;;;;;;;;;;;;;;;;;5049030;28;19922;-66
2022/12/20 12:38:34;;;;;;;;;;;;;;;;;;4980547;28;20489;-67
2022/12/20 12:41:02;;;;;;;;;;;;;;;;;;5046689;28;20527;-63
2022/12/20 12:43:28;;;;;;;;;;;;;;;;;;4981397;28;19928;-62
2022/12/20 12:45:54;;;;;;;;;;;;;;;;;;4964799;28;19957;-63
2022/12/20 12:48:19;;;;;;;;;;;;;;;;;;4946412;28;19922;-65
2022/12/20 12:50:47;;;;;;;;;;;;;;;;;;4979958;28;20179;-65
2022/12/20 12:53:12;;;;;;;;;;;;;;;;;;4950788;28;20147;-64
2022/12/20 12:55:38;;;;;;;;;;;;;;;;;;4980759;28;19926;-64
2022/12/20 12:58:03;;;;;;;;;;;;;;;;;;4959244;28;20385;-65
2022/12/20 13:00:28;;;;;;;;;;;;;;;;;;4961549;28;19917;-65
2022/12/20 13:02:54;;;;;;;;;;;;;;;;;;4978926;28;19925;-65
2022/12/20 13:05:19;;;;;;;;;;;;;;;;;;4946820;28;19926;-64
2022/12/20 13:07:45;;;;;;;;;;;;;;;;;;4960551;28;20559;-68
2022/12/20 13:10:10;;;;;;;;;;;;;;;;;;4962331;28;19925;-65
2022/12/20 13:12:46;;;;;;;;;;;;;;;;;;4964427;28;20154;-64
2022/12/20 13:15:13;;;;;;;;;;;;;;;;;;4961887;28;19944;-66
2022/12/20 13:17:38;;;;;;;;;;;;;;;;;;4948786;28;19921;-65
2022/12/20 13:20:06;;;;;;;;;;;;;;;;;;5028916;28;20360;-66
2022/12/20 13:22:32;;;;;;;;;;;;;;;;;;4980883;28;19921;-64
2022/12/20 13:24:57;;;;;;;;;;;;;;;;;;4976259;28;20061;-64
2022/12/20 13:27:22;;;;;;;;;;;;;;;;;;4976699;28;20077;-65
2022/12/20 13:29:48;;;;;;;;;;;;;;;;;;4977267;28;21465;-64
2022/12/20 13:32:16;;;;;;;;;;;;;;;;;;5061252;28;19923;-65
2022/12/20 13:34:42;;;;;;;;;;;;;;;;;;4976760;28;20039;-65
2022/12/20 13:37:07;;;;;;;;;;;;;;;;;;4974404;28;20307;-64
2022/12/20 13:39:37;;;;;;;;;;;;;;;;;;4976339;28;19931;-66
2022/12/20 13:42:03;;;;;;;;;;;;;;;;;;4994599;28;19922;-65
2022/12/20 13:44:28;;;;;;;;;;;;;;;;;;5060569;28;20473;-65
2022/12/20 13:46:54;;;;;;;;;;;;;;;;;;4975810;28;19926;-66
2022/12/20 13:49:19;;;;;;;;;;;;;;;;;;5042487;28;19932;-65
2022/12/20 13:51:44;;;;;;;;;;;;;;;;;;4971708;28;19916;-65
2022/12/20 13:54:12;;;;;;;;;;;;;;;;;;4961462;28;19928;-67
2022/12/20 13:56:42;;;;;;;;;;;;;;;;;;5062601;28;19958;-65
2022/12/20 13:59:08;;;;;;;;;;;;;;;;;;5063098;28;19920;-66
2022/12/20 14:01:34;;;;;;;;;;;;;;;;;;4973905;28;20392;-65
2022/12/20 14:04:00;;;;;;;;;;;;;;;;;;5060571;28;20410;-66
2022/12/20 14:06:25;;;;;;;;;;;;;;;;;;5060349;28;20047;-66
2022/12/20 14:08:51;;;;;;;;;;;;;;;;;;5060195;28;19916;-65
2022/12/20 14:11:22;;;;;;;;;;;;;;;;;;5062169;28;20424;-68
2022/12/20 14:13:50;;;;;;;;;;;;;;;;;;5061963;28;19974;-65
2022/12/20 14:16:16;;;;;;;;;;;;;;;;;;5060078;28;19916;-66
2022/12/20 14:18:43;;;;;;;;;;;;;;;;;;4972205;28;19924;-66
2022/12/20 14:21:09;;;;;;;;;;;;;;;;;;4959964;28;19998;-68
2022/12/20 14:23:34;;;;;;;;;;;;;;;;;;4990597;28;19916;-67
2022/12/20 14:26:00;;;;;;;;;;;;;;;;;;5062045;28;20492;-66
2022/12/20 14:28:25;;;;;;;;;;;;;;;;;;5060380;28;19920;-66
2022/12/20 14:30:51;;;;;;;;;;;;;;;;;;5059592;28;19924;-66
2022/12/20 14:33:16;;;;;;;;;;;;;;;;;;4974671;28;20429;-65
2022/12/20 14:35:47;;;;;;;;;;;;;;;;;;4975007;28;19915;-66
2022/12/20 14:38:17;;;;;;;;;;;;;;;;;;4977328;28;20041;-67
2022/12/20 14:40:45;;;;;;;;;;;;;;;;;;4976419;28;19920;-66
2022/12/20 14:43:13;;;;;;;;;;;;;;;;;;4979546;28;19920;-65
2022/12/20 14:45:38;;;;;;;;;;;;;;;;;;4976317;28;19931;-67
2022/12/20 14:48:05;;;;;;;;;;;;;;;;;;4974065;28;20402;-65
2022/12/20 14:50:31;;;;;;;;;;;;;;;;;;4979738;28;19927;-66
2022/12/20 14:52:59;;;;;;;;;;;;;;;;;;4978807;28;19931;-69
2022/12/20 14:55:24;;;;;;;;;;;;;;;;;;4955729;28;19960;-66
2022/12/20 14:57:50;;;;;;;;;;;;;;;;;;4964063;28;19942;-65
2022/12/20 15:00:21;;;;;;;;;;;;;;;;;;5063637;28;19964;-66
2022/12/20 15:02:46;;;;;;;;;;;;;;;;;;5065473;28;20308;-66
2022/12/20 15:05:11;;;;;;;;;;;;;;;;;;5062070;28;20042;-65
2022/12/20 15:07:37;;;;;;;;;;;;;;;;;;5066026;28;20062;-67
2022/12/20 15:10:05;;;;;;;;;;;;;;;;;;5064164;28;19916;-66
2022/12/20 15:12:30;;;;;;;;;;;;;;;;;;5066667;28;20335;-66
2022/12/20 15:14:58;;;;;;;;;;;;;;;;;;5064588;28;19942;-68
2022/12/20 15:17:25;;;;;;;;;;;;;;;;;;4975379;28;21711;-66
2022/12/20 15:19:50;;;;;;;;;;;;;;;;;;5063385;28;19916;-66
2022/12/20 15:22:16;;;;;;;;;;;;;;;;;;5061345;28;20439;-68
2022/12/20 15:24:42;;;;;;;;;;;;;;;;;;4964711;28;20409;-66
2022/12/20 15:27:10;;;;;;;;;;;;;;;;;;4960263;28;19924;-67
2022/12/20 15:29:38;;;;;;;;;;;;;;;;;;4963326;28;20361;-65
2022/12/20 15:32:03;;;;;;;;;;;;;;;;;;4965244;28;19918;-66
2022/12/20 15:34:29;;;;;;;;;;;;;;;;;;5047287;28;19982;-67
2022/12/20 15:36:55;;;;;;;;;;;;;;;;;;4964530;28;20692;-68
2022/12/20 15:39:21;;;;;;;;;;;;;;;;;;4961222;28;19932;-66
2022/12/20 15:41:46;;;;;;;;;;;;;;;;;;4962368;28;19942;-65
2022/12/20 15:44:11;;;;;;;;;;;;;;;;;;4982060;28;20385;-67
2022/12/20 15:46:39;;;;;;;;;;;;;;;;;;4980944;28;19949;-67
2022/12/20 15:49:07;;;;;;;;;;;;;;;;;;4983570;28;20115;-66
2022/12/20 15:51:35;;;;;;;;;;;;;;;;;;4962495;28;19972;-66
2022/12/20 15:54:00;;;;;;;;;;;;;;;;;;4982497;28;20032;-66
2022/12/20 15:56:26;;;;;;;;;;;;;;;;;;4979611;28;19926;-67
2022/12/20 15:58:52;;;;;;;;;;;;;;;;;;4981519;28;20045;-66
2022/12/20 16:01:17;;;;;;;;;;;;;;;;;;4965960;28;20412;-66
2022/12/20 16:03:54;;;;;;;;;;;;;;;;;;4981425;28;19978;-68
2022/12/20 16:06:27;;;;;;;;;;;;;;;;;;4959655;28;20334;-66
2022/12/20 16:12:08;;;;;;;;;;;;;;;;;;4982455;28;20644;-63
2022/12/20 16:14:36;;;;;;;;;;;;;;;;;;4981184;28;19925;-62
2022/12/20 16:17:02;;;;;;;;;;;;;;;;;;4981697;28;19918;-62
2022/12/20 16:19:27;;;;;;;;;;;;;;;;;;4983173;28;20524;-63
2022/12/20 16:21:53;;;;;;;;;;;;;;;;;;4964732;28;20393;-62
2022/12/20 16:24:18;;;;;;;;;;;;;;;;;;5044865;28;19924;-61
2022/12/20 16:26:46;;;;;;;;;;;;;;;;;;5065048;28;20340;-62
2022/12/20 16:29:14;;;;;;;;;;;;;;;;;;4976090;28;20413;-61
2022/12/20 16:31:39;;;;;;;;;;;;;;;;;;5064767;28;19966;-62
2022/12/20 16:34:04;;;;;;;;;;;;;;;;;;5062176;28;19939;-62
2022/12/20 16:36:32;;;;;;;;;;;;;;;;;;5063148;28;19916;-62
2022/12/20 16:39:00;;;;;;;;;;;;;;;;;;5063243;28;19931;-63
2022/12/20 16:41:28;;;;;;;;;;;;;;;;;;5063589;28;19920;-62
2022/12/20 16:43:53;;;;;;;;;;;;;;;;;;5045160;28;19916;-60
2022/12/20 16:46:21;;;;;;;;;;;;;;;;;;5043759;28;19967;-61
2022/12/20 16:48:46;;;;;;;;;;;;;;;;;;5064992;28;20392;-60
2022/12/20 16:51:14;;;;;;;;;;;;;;;;;;4961124;28;20069;-60
2022/12/20 16:53:39;;;;;;;;;;;;;;;;;;4991778;28;19924;-61
2022/12/20 16:56:05;;;;;;;;;;;;;;;;;;5061512;28;20333;-60
2022/12/20 16:58:30;;;;;;;;;;;;;;;;;;4974483;28;19916;-61
2022/12/20 17:00:56;;;;;;;;;;;;;;;;;;5059802;28;19943;-61
2022/12/20 17:03:23;;;;;;;;;;;;;;;;;;4994994;28;19920;-61
2022/12/20 17:05:51;;;;;;;;;;;;;;;;;;4975208;28;20393;-62
2022/12/20 17:08:16;;;;;;;;;;;;;;;;;;5061896;28;20042;-61
2022/12/20 17:10:42;;;;;;;;;;;;;;;;;;4960725;28;20260;-61
2022/12/20 17:13:09;;;;;;;;;;;;;;;;;;4991590;28;20344;-61
2022/12/20 17:15:38;;;;;;;;;;;;;;;;;;5061788;28;20658;-61
2022/12/20 17:18:05;;;;;;;;;;;;;;;;;;5061651;28;19920;-61
2022/12/20 17:20:30;;;;;;;;;;;;;;;;;;4976422;28;20318;-62
2022/12/20 17:22:56;;;;;;;;;;;;;;;;;;4968061;28;19920;-61
2022/12/20 17:25:21;;;;;;;;;;;;;;;;;;5049745;28;20036;-61
2022/12/20 17:27:47;;;;;;;;;;;;;;;;;;4982328;28;21850;-62
2022/12/20 17:30:13;;;;;;;;;;;;;;;;;;4966648;28;20070;-61
2022/12/20 17:32:38;;;;;;;;;;;;;;;;;;4950701;28;19921;-61
2022/12/20 17:35:04;;;;;;;;;;;;;;;;;;4983065;28;19975;-62